Terminal Aerodrome Forecast
Issued by NWS

Home | Current Version | Previous Version | Text Only | Print | Product List | Glossary On
Versions: 1 2 3 4 5 6 7 8 9 10 11 12 13 14 15 16 17 18 19
000
FTUS43 KGRR 240400 AAB
TAFMKG
TAF AMD
KMKG 240421Z 2404/2424 VRB03KT P6SM SKC
      TEMPO 2405/2409 4SM BR
     FM240900 00000KT 4SM BR SKC
     FM241300 16008KT P6SM SCT250=

USA.gov is the U.S. government's official web portal to all federal, state and local government web resources and services.